sensor_id;sensor_type;location;lat;lon;timestamp;P1;durP1;ratioP1;P2;durP2;ratioP2
13597;SDS011;38563;54.258;12.574;2023-04-06T00:02:25;0.00;;;0.00;;
13597;SDS011;38563;54.258;12.574;2023-04-06T00:04:51;0.00;;;0.00;;
13597;SDS011;38563;54.258;12.574;2023-04-06T00:07:18;0.00;;;0.00;;
13597;SDS011;38563;54.258;12.574;2023-04-06T00:09:45;0.00;;;0.00;;
13597;SDS011;38563;54.258;12.574;2023-04-06T00:12:13;0.00;;;0.00;;
13597;SDS011;38563;54.258;12.574;2023-04-06T00:14:40;0.00;;;0.00;;
13597;SDS011;38563;54.258;12.574;2023-04-06T00:17:06;0.00;;;0.00;;
13597;SDS011;38563;54.258;12.574;2023-04-06T00:19:33;0.00;;;0.00;;
13597;SDS011;38563;54.258;12.574;2023-04-06T00:22:00;0.00;;;0.00;;
13597;SDS011;38563;54.258;12.574;2023-04-06T00:24:27;0.00;;;0.00;;
13597;SDS011;38563;54.258;12.574;2023-04-06T00:26:54;0.00;;;0.00;;
13597;SDS011;38563;54.258;12.574;2023-04-06T00:29:22;0.00;;;0.00;;
13597;SDS011;38563;54.258;12.574;2023-04-06T00:31:49;0.00;;;0.00;;
13597;SDS011;38563;54.258;12.574;2023-04-06T00:34:15;0.00;;;0.00;;
13597;SDS011;38563;54.258;12.574;2023-04-06T00:36:42;0.00;;;0.00;;
13597;SDS011;38563;54.258;12.574;2023-04-06T00:39:09;0.00;;;0.00;;
13597;SDS011;38563;54.258;12.574;2023-04-06T00:41:36;0.00;;;0.00;;
13597;SDS011;38563;54.258;12.574;2023-04-06T00:44:02;0.00;;;0.00;;
13597;SDS011;38563;54.258;12.574;2023-04-06T00:46:30;0.00;;;0.00;;
13597;SDS011;38563;54.258;12.574;2023-04-06T00:48:57;0.00;;;0.00;;
13597;SDS011;38563;54.258;12.574;2023-04-06T00:51:24;0.00;;;0.00;;
13597;SDS011;38563;54.258;12.574;2023-04-06T00:53:51;0.10;;;0.10;;
13597;SDS011;38563;54.258;12.574;2023-04-06T00:56:18;0.00;;;0.00;;
13597;SDS011;38563;54.258;12.574;2023-04-06T00:58:51;0.00;;;0.00;;
13597;SDS011;38563;54.258;12.574;2023-04-06T01:01:19;0.00;;;0.00;;
13597;SDS011;38563;54.258;12.574;2023-04-06T01:03:49;0.00;;;0.00;;
13597;SDS011;38563;54.258;12.574;2023-04-06T01:06:17;0.00;;;0.00;;
13597;SDS011;38563;54.258;12.574;2023-04-06T01:08:51;0.00;;;0.00;;
13597;SDS011;38563;54.258;12.574;2023-04-06T01:11:20;0.00;;;0.00;;
13597;SDS011;38563;54.258;12.574;2023-04-06T01:13:49;0.00;;;0.00;;
13597;SDS011;38563;54.258;12.574;2023-04-06T01:16:25;0.00;;;0.00;;
13597;SDS011;38563;54.258;12.574;2023-04-06T01:19:08;0.00;;;0.00;;
13597;SDS011;38563;54.258;12.574;2023-04-06T01:21:35;0.00;;;0.00;;
13597;SDS011;38563;54.258;12.574;2023-04-06T01:24:27;0.00;;;0.00;;
13597;SDS011;38563;54.258;12.574;2023-04-06T01:27:03;0.00;;;0.00;;
13597;SDS011;38563;54.258;12.574;2023-04-06T01:29:48;0.00;;;0.00;;
13597;SDS011;38563;54.258;12.574;2023-04-06T01:32:27;0.00;;;0.00;;
13597;SDS011;38563;54.258;12.574;2023-04-06T01:34:53;0.00;;;0.00;;
13597;SDS011;38563;54.258;12.574;2023-04-06T01:37:20;0.00;;;0.00;;
13597;SDS011;38563;54.258;12.574;2023-04-06T01:39:49;0.00;;;0.00;;
13597;SDS011;38563;54.258;12.574;2023-04-06T01:42:25;0.00;;;0.00;;
13597;SDS011;38563;54.258;12.574;2023-04-06T01:44:53;0.00;;;0.00;;
13597;SDS011;38563;54.258;12.574;2023-04-06T01:47:19;0.00;;;0.00;;
13597;SDS011;38563;54.258;12.574;2023-04-06T01:49:47;0.00;;;0.00;;
13597;SDS011;38563;54.258;12.574;2023-04-06T01:52:14;0.00;;;0.00;;
13597;SDS011;38563;54.258;12.574;2023-04-06T01:54:48;0.00;;;0.00;;
13597;SDS011;38563;54.258;12.574;2023-04-06T01:57:21;0.00;;;0.00;;
13597;SDS011;38563;54.258;12.574;2023-04-06T01:59:57;0.00;;;0.00;;
13597;SDS011;38563;54.258;12.574;2023-04-06T02:02:38;0.00;;;0.00;;
13597;SDS011;38563;54.258;12.574;2023-04-06T02:05:11;0.00;;;0.00;;
13597;SDS011;38563;54.258;12.574;2023-04-06T02:07:39;0.00;;;0.00;;
13597;SDS011;38563;54.258;12.574;2023-04-06T02:10:12;0.00;;;0.00;;
13597;SDS011;38563;54.258;12.574;2023-04-06T02:12:40;0.00;;;0.00;;
13597;SDS011;38563;54.258;12.574;2023-04-06T02:15:10;0.00;;;0.00;;
13597;SDS011;38563;54.258;12.574;2023-04-06T02:17:38;0.00;;;0.00;;
13597;SDS011;38563;54.258;12.574;2023-04-06T02:20:05;0.00;;;0.00;;
13597;SDS011;38563;54.258;12.574;2023-04-06T02:22:32;0.00;;;0.00;;
13597;SDS011;38563;54.258;12.574;2023-04-06T02:25:00;0.00;;;0.00;;
13597;SDS011;38563;54.258;12.574;2023-04-06T02:27:28;0.10;;;0.10;;
13597;SDS011;38563;54.258;12.574;2023-04-06T02:29:55;0.00;;;0.00;;
13597;SDS011;38563;54.258;12.574;2023-04-06T02:32:22;0.00;;;0.00;;
13597;SDS011;38563;54.258;12.574;2023-04-06T02:34:49;0.00;;;0.00;;
13597;SDS011;38563;54.258;12.574;2023-04-06T02:37:18;0.00;;;0.00;;
13597;SDS011;38563;54.258;12.574;2023-04-06T02:39:45;0.00;;;0.00;;
13597;SDS011;38563;54.258;12.574;2023-04-06T02:42:12;0.00;;;0.00;;
13597;SDS011;38563;54.258;12.574;2023-04-06T02:44:41;0.00;;;0.00;;
13597;SDS011;38563;54.258;12.574;2023-04-06T02:47:09;0.00;;;0.00;;
13597;SDS011;38563;54.258;12.574;2023-04-06T02:49:37;0.00;;;0.00;;
13597;SDS011;38563;54.258;12.574;2023-04-06T02:52:04;0.00;;;0.00;;
13597;SDS011;38563;54.258;12.574;2023-04-06T02:54:34;0.00;;;0.00;;
13597;SDS011;38563;54.258;12.574;2023-04-06T02:57:02;0.00;;;0.00;;
13597;SDS011;38563;54.258;12.574;2023-04-06T02:59:36;0.00;;;0.00;;
13597;SDS011;38563;54.258;12.574;2023-04-06T03:02:19;0.00;;;0.00;;
13597;SDS011;38563;54.258;12.574;2023-04-06T03:04:45;0.00;;;0.00;;
13597;SDS011;38563;54.258;12.574;2023-04-06T03:07:25;0.00;;;0.00;;
13597;SDS011;38563;54.258;12.574;2023-04-06T03:09:51;0.00;;;0.00;;
13597;SDS011;38563;54.258;12.574;2023-04-06T03:12:18;0.00;;;0.00;;
13597;SDS011;38563;54.258;12.574;2023-04-06T03:15:05;0.00;;;0.00;;
13597;SDS011;38563;54.258;12.574;2023-04-06T03:17:35;0.00;;;0.00;;
13597;SDS011;38563;54.258;12.574;2023-04-06T03:20:06;0.00;;;0.00;;
13597;SDS011;38563;54.258;12.574;2023-04-06T03:22:34;0.00;;;0.00;;
13597;SDS011;38563;54.258;12.574;2023-04-06T03:25:01;0.00;;;0.00;;
13597;SDS011;38563;54.258;12.574;2023-04-06T03:27:29;0.00;;;0.00;;
13597;SDS011;38563;54.258;12.574;2023-04-06T03:29:56;0.00;;;0.00;;
13597;SDS011;38563;54.258;12.574;2023-04-06T03:32:29;0.00;;;0.00;;
13597;SDS011;38563;54.258;12.574;2023-04-06T03:34:57;0.00;;;0.00;;
13597;SDS011;38563;54.258;12.574;2023-04-06T03:37:24;0.00;;;0.00;;
13597;SDS011;38563;54.258;12.574;2023-04-06T03:39:55;0.00;;;0.00;;
13597;SDS011;38563;54.258;12.574;2023-04-06T03:42:23;0.00;;;0.00;;
13597;SDS011;38563;54.258;12.574;2023-04-06T03:44:56;0.00;;;0.00;;
13597;SDS011;38563;54.258;12.574;2023-04-06T03:47:23;0.00;;;0.00;;
13597;SDS011;38563;54.258;12.574;2023-04-06T03:49:55;0.00;;;0.00;;
13597;SDS011;38563;54.258;12.574;2023-04-06T03:52:23;0.00;;;0.00;;
13597;SDS011;38563;54.258;12.574;2023-04-06T03:54:51;0.00;;;0.00;;
13597;SDS011;38563;54.258;12.574;2023-04-06T03:57:17;0.00;;;0.00;;
13597;SDS011;38563;54.258;12.574;2023-04-06T03:59:44;0.00;;;0.00;;
13597;SDS011;38563;54.258;12.574;2023-04-06T04:02:11;0.00;;;0.00;;
13597;SDS011;38563;54.258;12.574;2023-04-06T04:04:37;0.00;;;0.00;;
13597;SDS011;38563;54.258;12.574;2023-04-06T04:07:04;0.00;;;0.00;;
13597;SDS011;38563;54.258;12.574;2023-04-06T04:09:32;0.00;;;0.00;;
13597;SDS011;38563;54.258;12.574;2023-04-06T04:11:59;0.00;;;0.00;;
13597;SDS011;38563;54.258;12.574;2023-04-06T04:14:25;0.00;;;0.00;;
13597;SDS011;38563;54.258;12.574;2023-04-06T04:16:52;0.00;;;0.00;;
13597;SDS011;38563;54.258;12.574;2023-04-06T04:19:19;0.00;;;0.00;;
13597;SDS011;38563;54.258;12.574;2023-04-06T04:21:46;0.00;;;0.00;;
13597;SDS011;38563;54.258;12.574;2023-04-06T04:24:17;0.00;;;0.00;;
13597;SDS011;38563;54.258;12.574;2023-04-06T04:26:45;0.00;;;0.00;;
13597;SDS011;38563;54.258;12.574;2023-04-06T04:29:13;0.00;;;0.00;;
13597;SDS011;38563;54.258;12.574;2023-04-06T04:31:40;0.00;;;0.00;;
13597;SDS011;38563;54.258;12.574;2023-04-06T04:34:13;0.00;;;0.00;;
13597;SDS011;38563;54.258;12.574;2023-04-06T04:36:40;0.00;;;0.00;;
13597;SDS011;38563;54.258;12.574;2023-04-06T04:39:10;0.00;;;0.00;;
13597;SDS011;38563;54.258;12.574;2023-04-06T04:41:41;0.00;;;0.00;;
13597;SDS011;38563;54.258;12.574;2023-04-06T04:44:12;0.00;;;0.00;;
13597;SDS011;38563;54.258;12.574;2023-04-06T04:46:39;0.00;;;0.00;;
13597;SDS011;38563;54.258;12.574;2023-04-06T04:49:07;0.00;;;0.00;;
13597;SDS011;38563;54.258;12.574;2023-04-06T04:51:34;0.00;;;0.00;;
13597;SDS011;38563;54.258;12.574;2023-04-06T04:54:12;0.00;;;0.00;;
13597;SDS011;38563;54.258;12.574;2023-04-06T04:56:40;0.00;;;0.00;;
13597;SDS011;38563;54.258;12.574;2023-04-06T04:59:21;0.00;;;0.00;;
13597;SDS011;38563;54.258;12.574;2023-04-06T05:01:55;0.00;;;0.00;;
13597;SDS011;38563;54.258;12.574;2023-04-06T05:04:29;0.00;;;0.00;;
13597;SDS011;38563;54.258;12.574;2023-04-06T05:07:05;0.00;;;0.00;;
13597;SDS011;38563;54.258;12.574;2023-04-06T05:09:34;0.00;;;0.00;;
13597;SDS011;38563;54.258;12.574;2023-04-06T05:12:02;0.00;;;0.00;;
13597;SDS011;38563;54.258;12.574;2023-04-06T05:14:35;0.00;;;0.00;;
13597;SDS011;38563;54.258;12.574;2023-04-06T05:17:05;0.00;;;0.00;;
13597;SDS011;38563;54.258;12.574;2023-04-06T05:19:33;0.00;;;0.00;;
13597;SDS011;38563;54.258;12.574;2023-04-06T05:22:00;0.00;;;0.00;;
13597;SDS011;38563;54.258;12.574;2023-04-06T05:24:29;0.00;;;0.00;;
13597;SDS011;38563;54.258;12.574;2023-04-06T05:26:57;0.00;;;0.00;;
13597;SDS011;38563;54.258;12.574;2023-04-06T05:29:25;0.00;;;0.00;;
13597;SDS011;38563;54.258;12.574;2023-04-06T05:31:53;0.00;;;0.00;;
13597;SDS011;38563;54.258;12.574;2023-04-06T05:34:20;0.00;;;0.00;;
13597;SDS011;38563;54.258;12.574;2023-04-06T05:36:48;0.00;;;0.00;;
13597;SDS011;38563;54.258;12.574;2023-04-06T05:39:22;0.00;;;0.00;;
13597;SDS011;38563;54.258;12.574;2023-04-06T05:41:50;0.00;;;0.00;;
13597;SDS011;38563;54.258;12.574;2023-04-06T05:44:28;0.00;;;0.00;;
13597;SDS011;38563;54.258;12.574;2023-04-06T05:47:05;0.00;;;0.00;;
13597;SDS011;38563;54.258;12.574;2023-04-06T05:49:32;0.00;;;0.00;;
13597;SDS011;38563;54.258;12.574;2023-04-06T05:52:00;0.00;;;0.00;;
13597;SDS011;38563;54.258;12.574;2023-04-06T05:54:27;0.00;;;0.00;;
13597;SDS011;38563;54.258;12.574;2023-04-06T05:56:58;0.00;;;0.00;;
13597;SDS011;38563;54.258;12.574;2023-04-06T05:59:27;0.00;;;0.00;;
13597;SDS011;38563;54.258;12.574;2023-04-06T06:01:54;0.00;;;0.00;;
13597;SDS011;38563;54.258;12.574;2023-04-06T06:04:22;0.00;;;0.00;;
13597;SDS011;38563;54.258;12.574;2023-04-06T06:06:52;0.00;;;0.00;;
13597;SDS011;38563;54.258;12.574;2023-04-06T06:09:32;0.00;;;0.00;;
13597;SDS011;38563;54.258;12.574;2023-04-06T06:12:13;0.00;;;0.00;;
13597;SDS011;38563;54.258;12.574;2023-04-06T06:14:40;0.00;;;0.00;;
13597;SDS011;38563;54.258;12.574;2023-04-06T06:17:07;0.00;;;0.00;;
13597;SDS011;38563;54.258;12.574;2023-04-06T06:19:35;0.00;;;0.00;;
13597;SDS011;38563;54.258;12.574;2023-04-06T06:22:05;0.00;;;0.00;;
13597;SDS011;38563;54.258;12.574;2023-04-06T06:24:35;0.00;;;0.00;;
13597;SDS011;38563;54.258;12.574;2023-04-06T06:27:02;0.00;;;0.00;;
13597;SDS011;38563;54.258;12.574;2023-04-06T06:29:32;0.00;;;0.00;;
13597;SDS011;38563;54.258;12.574;2023-04-06T06:31:59;0.00;;;0.00;;
13597;SDS011;38563;54.258;12.574;2023-04-06T06:34:26;0.00;;;0.00;;
13597;SDS011;38563;54.258;12.574;2023-04-06T06:36:56;0.00;;;0.00;;
13597;SDS011;38563;54.258;12.574;2023-04-06T06:39:23;0.00;;;0.00;;
13597;SDS011;38563;54.258;12.574;2023-04-06T06:41:50;0.00;;;0.00;;
13597;SDS011;38563;54.258;12.574;2023-04-06T06:44:21;0.00;;;0.00;;
13597;SDS011;38563;54.258;12.574;2023-04-06T06:46:49;0.00;;;0.00;;
13597;SDS011;38563;54.258;12.574;2023-04-06T06:49:17;0.00;;;0.00;;
13597;SDS011;38563;54.258;12.574;2023-04-06T06:51:44;0.00;;;0.00;;
13597;SDS011;38563;54.258;12.574;2023-04-06T06:54:13;0.00;;;0.00;;
13597;SDS011;38563;54.258;12.574;2023-04-06T06:56:39;0.00;;;0.00;;
13597;SDS011;38563;54.258;12.574;2023-04-06T06:59:06;0.00;;;0.00;;
13597;SDS011;38563;54.258;12.574;2023-04-06T07:01:34;0.00;;;0.00;;
13597;SDS011;38563;54.258;12.574;2023-04-06T07:04:00;0.00;;;0.00;;
13597;SDS011;38563;54.258;12.574;2023-04-06T07:06:27;0.00;;;0.00;;
13597;SDS011;38563;54.258;12.574;2023-04-06T07:08:54;0.00;;;0.00;;
13597;SDS011;38563;54.258;12.574;2023-04-06T07:11:22;0.00;;;0.00;;
13597;SDS011;38563;54.258;12.574;2023-04-06T07:13:48;0.00;;;0.00;;
13597;SDS011;38563;54.258;12.574;2023-04-06T07:16:15;0.00;;;0.00;;
13597;SDS011;38563;54.258;12.574;2023-04-06T07:18:42;0.00;;;0.00;;
13597;SDS011;38563;54.258;12.574;2023-04-06T07:21:09;0.00;;;0.00;;
13597;SDS011;38563;54.258;12.574;2023-04-06T07:23:36;0.00;;;0.00;;
13597;SDS011;38563;54.258;12.574;2023-04-06T07:26:02;0.00;;;0.00;;
13597;SDS011;38563;54.258;12.574;2023-04-06T07:28:31;0.00;;;0.00;;
13597;SDS011;38563;54.258;12.574;2023-04-06T07:30:59;0.00;;;0.00;;
13597;SDS011;38563;54.258;12.574;2023-04-06T07:33:27;0.00;;;0.00;;
13597;SDS011;38563;54.258;12.574;2023-04-06T07:35:55;0.00;;;0.00;;
13597;SDS011;38563;54.258;12.574;2023-04-06T07:38:23;0.00;;;0.00;;
13597;SDS011;38563;54.258;12.574;2023-04-06T07:40:51;0.00;;;0.00;;
13597;SDS011;38563;54.258;12.574;2023-04-06T07:43:18;0.03;;;0.03;;
13597;SDS011;38563;54.258;12.574;2023-04-06T07:45:46;0.00;;;0.00;;
13597;SDS011;38563;54.258;12.574;2023-04-06T07:48:15;0.00;;;0.00;;
13597;SDS011;38563;54.258;12.574;2023-04-06T07:50:42;0.00;;;0.00;;
13597;SDS011;38563;54.258;12.574;2023-04-06T07:53:09;0.00;;;0.00;;
13597;SDS011;38563;54.258;12.574;2023-04-06T07:55:37;0.00;;;0.00;;
13597;SDS011;38563;54.258;12.574;2023-04-06T07:58:03;0.00;;;0.00;;
13597;SDS011;38563;54.258;12.574;2023-04-06T08:00:30;0.00;;;0.00;;
13597;SDS011;38563;54.258;12.574;2023-04-06T08:02:58;0.00;;;0.00;;
13597;SDS011;38563;54.258;12.574;2023-04-06T08:05:25;0.00;;;0.00;;
13597;SDS011;38563;54.258;12.574;2023-04-06T08:07:52;0.00;;;0.00;;
13597;SDS011;38563;54.258;12.574;2023-04-06T08:10:19;0.00;;;0.00;;
13597;SDS011;38563;54.258;12.574;2023-04-06T08:12:45;0.00;;;0.00;;
13597;SDS011;38563;54.258;12.574;2023-04-06T08:15:12;0.00;;;0.00;;
13597;SDS011;38563;54.258;12.574;2023-04-06T08:17:39;0.00;;;0.00;;
13597;SDS011;38563;54.258;12.574;2023-04-06T08:20:07;0.00;;;0.00;;
13597;SDS011;38563;54.258;12.574;2023-04-06T08:22:34;0.00;;;0.00;;
13597;SDS011;38563;54.258;12.574;2023-04-06T08:25:01;0.00;;;0.00;;
13597;SDS011;38563;54.258;12.574;2023-04-06T08:27:28;0.00;;;0.00;;
13597;SDS011;38563;54.258;12.574;2023-04-06T08:29:54;0.00;;;0.00;;
13597;SDS011;38563;54.258;12.574;2023-04-06T08:32:21;0.00;;;0.00;;
13597;SDS011;38563;54.258;12.574;2023-04-06T08:34:48;0.00;;;0.00;;
13597;SDS011;38563;54.258;12.574;2023-04-06T08:37:16;0.00;;;0.00;;
13597;SDS011;38563;54.258;12.574;2023-04-06T08:39:42;0.00;;;0.00;;
13597;SDS011;38563;54.258;12.574;2023-04-06T08:42:10;0.00;;;0.00;;
13597;SDS011;38563;54.258;12.574;2023-04-06T08:44:42;0.00;;;0.00;;
13597;SDS011;38563;54.258;12.574;2023-04-06T08:47:10;0.00;;;0.00;;
13597;SDS011;38563;54.258;12.574;2023-04-06T08:49:37;0.00;;;0.00;;
13597;SDS011;38563;54.258;12.574;2023-04-06T08:52:05;0.00;;;0.00;;
13597;SDS011;38563;54.258;12.574;2023-04-06T08:54:34;0.00;;;0.00;;
13597;SDS011;38563;54.258;12.574;2023-04-06T08:57:00;0.00;;;0.00;;
13597;SDS011;38563;54.258;12.574;2023-04-06T08:59:28;0.00;;;0.00;;
13597;SDS011;38563;54.258;12.574;2023-04-06T09:01:55;0.00;;;0.00;;
13597;SDS011;38563;54.258;12.574;2023-04-06T09:04:23;0.00;;;0.00;;
13597;SDS011;38563;54.258;12.574;2023-04-06T09:06:49;0.00;;;0.00;;
13597;SDS011;38563;54.258;12.574;2023-04-06T09:09:17;0.00;;;0.00;;
13597;SDS011;38563;54.258;12.574;2023-04-06T09:11:46;0.00;;;0.00;;
13597;SDS011;38563;54.258;12.574;2023-04-06T09:14:14;0.00;;;0.00;;
13597;SDS011;38563;54.258;12.574;2023-04-06T09:16:41;0.00;;;0.00;;
13597;SDS011;38563;54.258;12.574;2023-04-06T09:19:10;0.00;;;0.00;;
13597;SDS011;38563;54.258;12.574;2023-04-06T09:21:38;0.10;;;0.10;;
13597;SDS011;38563;54.258;12.574;2023-04-06T09:24:06;0.00;;;0.00;;
13597;SDS011;38563;54.258;12.574;2023-04-06T09:26:43;0.00;;;0.00;;
13597;SDS011;38563;54.258;12.574;2023-04-06T09:29:21;0.10;;;0.10;;
13597;SDS011;38563;54.258;12.574;2023-04-06T09:31:49;0.10;;;0.10;;
13597;SDS011;38563;54.258;12.574;2023-04-06T09:34:20;0.00;;;0.00;;
13597;SDS011;38563;54.258;12.574;2023-04-06T09:36:48;0.10;;;0.10;;
13597;SDS011;38563;54.258;12.574;2023-04-06T09:39:19;0.00;;;0.00;;
13597;SDS011;38563;54.258;12.574;2023-04-06T09:41:50;0.00;;;0.00;;
13597;SDS011;38563;54.258;12.574;2023-04-06T09:44:19;0.00;;;0.00;;
13597;SDS011;38563;54.258;12.574;2023-04-06T09:46:46;0.13;;;0.13;;
13597;SDS011;38563;54.258;12.574;2023-04-06T09:49:13;0.00;;;0.00;;
13597;SDS011;38563;54.258;12.574;2023-04-06T09:51:41;0.10;;;0.10;;
13597;SDS011;38563;54.258;12.574;2023-04-06T09:54:12;0.10;;;0.10;;
13597;SDS011;38563;54.258;12.574;2023-04-06T09:56:45;0.00;;;0.00;;
13597;SDS011;38563;54.258;12.574;2023-04-06T09:59:16;0.10;;;0.10;;
13597;SDS011;38563;54.258;12.574;2023-04-06T10:01:48;0.10;;;0.10;;
13597;SDS011;38563;54.258;12.574;2023-04-06T10:04:21;0.00;;;0.00;;
13597;SDS011;38563;54.258;12.574;2023-04-06T10:06:55;0.00;;;0.00;;
13597;SDS011;38563;54.258;12.574;2023-04-06T10:09:24;0.00;;;0.00;;
13597;SDS011;38563;54.258;12.574;2023-04-06T10:11:54;0.10;;;0.10;;
13597;SDS011;38563;54.258;12.574;2023-04-06T10:14:22;0.00;;;0.00;;
13597;SDS011;38563;54.258;12.574;2023-04-06T10:16:50;0.10;;;0.10;;
13597;SDS011;38563;54.258;12.574;2023-04-06T10:19:18;0.10;;;0.10;;
13597;SDS011;38563;54.258;12.574;2023-04-06T10:21:51;0.10;;;0.10;;
13597;SDS011;38563;54.258;12.574;2023-04-06T10:24:20;0.10;;;0.10;;
13597;SDS011;38563;54.258;12.574;2023-04-06T10:26:56;0.10;;;0.10;;
13597;SDS011;38563;54.258;12.574;2023-04-06T10:29:25;0.10;;;0.10;;
13597;SDS011;38563;54.258;12.574;2023-04-06T10:31:51;0.10;;;0.10;;
13597;SDS011;38563;54.258;12.574;2023-04-06T10:34:20;0.10;;;0.10;;
13597;SDS011;38563;54.258;12.574;2023-04-06T10:36:46;0.10;;;0.10;;
13597;SDS011;38563;54.258;12.574;2023-04-06T10:39:13;0.10;;;0.10;;
13597;SDS011;38563;54.258;12.574;2023-04-06T10:41:41;0.10;;;0.10;;
13597;SDS011;38563;54.258;12.574;2023-04-06T10:44:16;0.10;;;0.10;;
13597;SDS011;38563;54.258;12.574;2023-04-06T10:46:51;0.10;;;0.10;;
13597;SDS011;38563;54.258;12.574;2023-04-06T10:49:19;0.10;;;0.10;;
13597;SDS011;38563;54.258;12.574;2023-04-06T10:51:50;0.10;;;0.10;;
13597;SDS011;38563;54.258;12.574;2023-04-06T10:54:17;0.10;;;0.10;;
13597;SDS011;38563;54.258;12.574;2023-04-06T10:56:46;0.10;;;0.10;;
13597;SDS011;38563;54.258;12.574;2023-04-06T10:59:17;0.10;;;0.10;;
13597;SDS011;38563;54.258;12.574;2023-04-06T11:01:46;0.20;;;0.20;;
13597;SDS011;38563;54.258;12.574;2023-04-06T11:04:15;0.10;;;0.10;;
13597;SDS011;38563;54.258;12.574;2023-04-06T11:06:45;0.10;;;0.10;;
13597;SDS011;38563;54.258;12.574;2023-04-06T11:09:22;0.10;;;0.10;;
13597;SDS011;38563;54.258;12.574;2023-04-06T11:11:50;0.10;;;0.10;;
13597;SDS011;38563;54.258;12.574;2023-04-06T11:14:17;0.10;;;0.10;;
13597;SDS011;38563;54.258;12.574;2023-04-06T11:16:47;0.20;;;0.20;;
13597;SDS011;38563;54.258;12.574;2023-04-06T11:19:14;0.10;;;0.10;;
13597;SDS011;38563;54.258;12.574;2023-04-06T11:21:42;0.20;;;0.20;;
13597;SDS011;38563;54.258;12.574;2023-04-06T11:24:12;0.10;;;0.10;;
13597;SDS011;38563;54.258;12.574;2023-04-06T11:26:41;0.10;;;0.10;;
13597;SDS011;38563;54.258;12.574;2023-04-06T11:29:09;0.20;;;0.20;;
13597;SDS011;38563;54.258;12.574;2023-04-06T11:31:40;0.10;;;0.10;;
13597;SDS011;38563;54.258;12.574;2023-04-06T11:34:12;0.10;;;0.10;;
13597;SDS011;38563;54.258;12.574;2023-04-06T11:36:42;0.10;;;0.10;;
13597;SDS011;38563;54.258;12.574;2023-04-06T11:39:10;0.10;;;0.10;;
13597;SDS011;38563;54.258;12.574;2023-04-06T11:41:37;0.17;;;0.17;;
13597;SDS011;38563;54.258;12.574;2023-04-06T11:44:05;0.10;;;0.10;;
13597;SDS011;38563;54.258;12.574;2023-04-06T11:46:32;0.10;;;0.10;;
13597;SDS011;38563;54.258;12.574;2023-04-06T11:48:59;0.10;;;0.10;;
13597;SDS011;38563;54.258;12.574;2023-04-06T11:51:27;0.10;;;0.10;;
13597;SDS011;38563;54.258;12.574;2023-04-06T11:53:54;0.10;;;0.10;;
13597;SDS011;38563;54.258;12.574;2023-04-06T11:56:25;0.10;;;0.10;;
13597;SDS011;38563;54.258;12.574;2023-04-06T11:58:54;0.10;;;0.10;;
13597;SDS011;38563;54.258;12.574;2023-04-06T12:01:21;0.00;;;0.00;;
13597;SDS011;38563;54.258;12.574;2023-04-06T12:03:48;0.00;;;0.00;;
13597;SDS011;38563;54.258;12.574;2023-04-06T12:06:16;0.10;;;0.10;;
13597;SDS011;38563;54.258;12.574;2023-04-06T12:08:44;0.20;;;0.20;;
13597;SDS011;38563;54.258;12.574;2023-04-06T12:11:11;0.10;;;0.10;;
13597;SDS011;38563;54.258;12.574;2023-04-06T12:13:38;0.17;;;0.17;;
13597;SDS011;38563;54.258;12.574;2023-04-06T12:16:05;0.10;;;0.10;;
13597;SDS011;38563;54.258;12.574;2023-04-06T12:18:32;0.10;;;0.10;;
13597;SDS011;38563;54.258;12.574;2023-04-06T12:20:58;0.10;;;0.10;;
13597;SDS011;38563;54.258;12.574;2023-04-06T12:23:25;0.10;;;0.10;;
13597;SDS011;38563;54.258;12.574;2023-04-06T12:25:53;0.20;;;0.20;;
13597;SDS011;38563;54.258;12.574;2023-04-06T12:28:20;0.10;;;0.10;;
13597;SDS011;38563;54.258;12.574;2023-04-06T12:30:48;0.10;;;0.10;;
13597;SDS011;38563;54.258;12.574;2023-04-06T12:33:15;0.10;;;0.10;;
13597;SDS011;38563;54.258;12.574;2023-04-06T12:35:42;0.20;;;0.20;;
13597;SDS011;38563;54.258;12.574;2023-04-06T12:38:09;0.10;;;0.10;;
13597;SDS011;38563;54.258;12.574;2023-04-06T12:40:36;0.00;;;0.00;;
13597;SDS011;38563;54.258;12.574;2023-04-06T12:43:05;0.10;;;0.10;;
13597;SDS011;38563;54.258;12.574;2023-04-06T12:45:32;0.20;;;0.20;;
13597;SDS011;38563;54.258;12.574;2023-04-06T12:47:59;0.10;;;0.10;;
13597;SDS011;38563;54.258;12.574;2023-04-06T12:50:26;0.10;;;0.10;;
13597;SDS011;38563;54.258;12.574;2023-04-06T12:52:52;0.20;;;0.20;;
13597;SDS011;38563;54.258;12.574;2023-04-06T12:55:19;0.20;;;0.20;;
13597;SDS011;38563;54.258;12.574;2023-04-06T12:57:46;0.20;;;0.20;;
13597;SDS011;38563;54.258;12.574;2023-04-06T13:00:15;0.10;;;0.10;;
13597;SDS011;38563;54.258;12.574;2023-04-06T13:02:42;0.20;;;0.20;;
13597;SDS011;38563;54.258;12.574;2023-04-06T13:05:12;0.20;;;0.20;;
13597;SDS011;38563;54.258;12.574;2023-04-06T13:07:39;0.10;;;0.10;;
13597;SDS011;38563;54.258;12.574;2023-04-06T13:10:07;0.20;;;0.20;;
13597;SDS011;38563;54.258;12.574;2023-04-06T13:12:34;0.20;;;0.20;;
13597;SDS011;38563;54.258;12.574;2023-04-06T13:15:01;0.10;;;0.10;;
13597;SDS011;38563;54.258;12.574;2023-04-06T13:17:29;0.10;;;0.10;;
13597;SDS011;38563;54.258;12.574;2023-04-06T13:19:56;0.10;;;0.10;;
13597;SDS011;38563;54.258;12.574;2023-04-06T13:22:23;0.10;;;0.10;;
13597;SDS011;38563;54.258;12.574;2023-04-06T13:24:50;0.20;;;0.20;;
13597;SDS011;38563;54.258;12.574;2023-04-06T13:27:17;0.20;;;0.20;;
13597;SDS011;38563;54.258;12.574;2023-04-06T13:29:44;0.10;;;0.10;;
13597;SDS011;38563;54.258;12.574;2023-04-06T13:32:11;0.20;;;0.20;;
13597;SDS011;38563;54.258;12.574;2023-04-06T13:34:39;0.20;;;0.20;;
13597;SDS011;38563;54.258;12.574;2023-04-06T13:37:09;0.10;;;0.10;;
13597;SDS011;38563;54.258;12.574;2023-04-06T13:39:37;0.10;;;0.10;;
13597;SDS011;38563;54.258;12.574;2023-04-06T13:42:03;0.30;;;0.30;;
13597;SDS011;38563;54.258;12.574;2023-04-06T13:44:31;0.20;;;0.20;;
13597;SDS011;38563;54.258;12.574;2023-04-06T13:46:58;0.20;;;0.20;;
13597;SDS011;38563;54.258;12.574;2023-04-06T13:49:25;0.10;;;0.10;;
13597;SDS011;38563;54.258;12.574;2023-04-06T13:51:53;0.20;;;0.20;;
13597;SDS011;38563;54.258;12.574;2023-04-06T13:54:19;0.20;;;0.20;;
13597;SDS011;38563;54.258;12.574;2023-04-06T13:56:46;0.10;;;0.10;;
13597;SDS011;38563;54.258;12.574;2023-04-06T13:59:13;0.10;;;0.10;;
13597;SDS011;38563;54.258;12.574;2023-04-06T14:01:39;0.20;;;0.20;;
13597;SDS011;38563;54.258;12.574;2023-04-06T14:04:06;0.10;;;0.10;;
13597;SDS011;38563;54.258;12.574;2023-04-06T14:06:33;0.40;;;0.40;;
13597;SDS011;38563;54.258;12.574;2023-04-06T14:09:01;0.20;;;0.20;;
13597;SDS011;38563;54.258;12.574;2023-04-06T14:11:29;0.10;;;0.10;;
13597;SDS011;38563;54.258;12.574;2023-04-06T14:13:56;0.20;;;0.20;;
13597;SDS011;38563;54.258;12.574;2023-04-06T14:16:23;0.20;;;0.20;;
13597;SDS011;38563;54.258;12.574;2023-04-06T14:18:50;0.10;;;0.10;;
13597;SDS011;38563;54.258;12.574;2023-04-06T14:21:17;0.20;;;0.20;;
13597;SDS011;38563;54.258;12.574;2023-04-06T14:23:45;0.10;;;0.10;;
13597;SDS011;38563;54.258;12.574;2023-04-06T14:26:13;0.20;;;0.20;;
13597;SDS011;38563;54.258;12.574;2023-04-06T14:28:40;0.20;;;0.20;;
13597;SDS011;38563;54.258;12.574;2023-04-06T14:31:11;0.20;;;0.20;;
13597;SDS011;38563;54.258;12.574;2023-04-06T14:33:39;0.20;;;0.20;;
13597;SDS011;38563;54.258;12.574;2023-04-06T14:36:07;0.20;;;0.20;;
13597;SDS011;38563;54.258;12.574;2023-04-06T14:38:34;0.30;;;0.30;;
13597;SDS011;38563;54.258;12.574;2023-04-06T14:41:01;0.20;;;0.20;;
13597;SDS011;38563;54.258;12.574;2023-04-06T14:43:29;0.20;;;0.20;;